Time;durP1;ratioP1;P1;durP2;ratioP2;P2;SDS_P1;SDS_P2;PMS_P1;PMS_P2;Temp;Humidity;BMP_temperature;BMP_pressure;BME280_temperature;BME280_humidity;BME280_pressure;Samples;Min_cycle;Max_cycle;Signal;HPM_P1;HPM_P2
2021/06/01 00:00:10;;;;;;;7.70;4.93;;;;;;;9.02;96.27;96501.84;5041365;28;21069;-72
2021/06/01 00:02:38;;;;;;;5.40;3.70;;;;;;;9.04;94.29;96502.53;5041602;28;20293;-71
2021/06/01 00:05:05;;;;;;;7.60;3.77;;;;;;;8.81;92.58;96498.84;5039590;28;20205;-71
2021/06/01 00:07:31;;;;;;;5.83;3.70;;;;;;;8.76;92.39;96495.88;5040897;28;20208;-72
2021/06/01 00:09:57;;;;;;;5.63;3.63;;;;;;;8.63;93.91;96492.88;5040028;28;20225;-71
2021/06/01 00:12:23;;;;;;;5.20;3.57;;;;;;;8.52;94.24;96502.84;5040040;28;20228;-71
2021/06/01 00:14:49;;;;;;;7.10;3.70;;;;;;;8.53;95.86;96494.81;5040025;28;20228;-71
2021/06/01 00:17:15;;;;;;;6.27;3.90;;;;;;;8.35;96.61;96490.63;5039816;28;20209;-71
2021/06/01 00:19:43;;;;;;;5.70;3.83;;;;;;;8.44;97.44;96497.56;5040702;28;20205;-72
2021/06/01 00:22:09;;;;;;;7.00;4.27;;;;;;;8.54;97.89;96498.25;5041181;28;20231;-72
2021/06/01 00:24:35;;;;;;;8.80;4.30;;;;;;;8.53;97.74;96494.81;5039545;28;20205;-72
2021/06/01 00:27:02;;;;;;;6.70;4.00;;;;;;;8.61;97.68;96491.38;5037991;28;20251;-72
2021/06/01 00:29:28;;;;;;;5.73;3.83;;;;;;;8.69;94.68;96504.53;5040576;28;20209;-72
2021/06/01 00:31:54;;;;;;;5.20;3.77;;;;;;;8.57;92.89;96504.00;5039010;28;20201;-72
2021/06/01 00:34:20;;;;;;;5.90;4.10;;;;;;;8.38;95.50;96495.56;5039332;28;20205;-72
2021/06/01 00:36:47;;;;;;;7.90;4.10;;;;;;;8.27;97.03;96493.19;5039952;28;20275;-71
2021/06/01 00:39:13;;;;;;;7.40;4.07;;;;;;;8.18;98.68;96502.00;5040012;28;20209;-72
2021/06/01 00:41:39;;;;;;;5.60;3.90;;;;;;;8.03;98.20;96500.09;5039015;28;20229;-72
2021/06/01 00:44:05;;;;;;;6.17;3.90;;;;;;;8.03;98.97;96506.19;5040487;28;20235;-72
2021/06/01 00:46:32;;;;;;;7.70;4.10;;;;;;;8.03;99.25;96500.09;5038076;28;20205;-72
2021/06/01 00:48:58;;;;;;;7.27;4.00;;;;;;;8.02;99.76;96498.47;5038959;28;20212;-72
2021/06/01 00:51:24;;;;;;;7.17;4.10;;;;;;;8.04;100.00;96497.34;5040753;28;20237;-72
2021/06/01 00:53:51;;;;;;;5.83;4.30;;;;;;;8.09;99.71;96499.47;5039546;28;20243;-72
2021/06/01 00:56:17;;;;;;;9.10;4.40;;;;;;;8.07;99.20;96494.41;5038258;28;20213;-71
2021/06/01 00:58:43;;;;;;;8.03;4.03;;;;;;;8.06;99.43;96491.94;5039142;28;20217;-72
2021/06/01 01:01:19;;;;;;;9.50;4.37;;;;;;;7.97;98.23;96495.47;5039273;28;20308;-71
2021/06/01 01:03:46;;;;;;;6.33;4.00;;;;;;;7.94;99.73;96485.28;5040701;28;20319;-71
2021/06/01 01:06:22;;;;;;;6.80;4.20;;;;;;;7.95;100.00;96489.56;5039188;28;20623;-72
2021/06/01 01:08:51;;;;;;;5.60;3.90;;;;;;;7.99;99.25;96483.00;5039741;28;20205;-71
2021/06/01 01:11:26;;;;;;;6.03;4.23;;;;;;;7.93;100.00;96479.22;5039835;28;20221;-71
2021/06/01 01:13:56;;;;;;;7.93;5.23;;;;;;;7.80;100.00;96477.97;5038881;28;20225;-72
2021/06/01 01:16:25;;;;;;;7.63;4.80;;;;;;;7.77;100.00;96477.47;5037871;28;20217;-72
2021/06/01 01:18:55;;;;;;;7.90;4.90;;;;;;;7.79;100.00;96476.34;5039850;28;20216;-71
2021/06/01 01:21:25;;;;;;;9.00;4.70;;;;;;;7.83;100.00;96474.22;5039633;28;20233;-71
2021/06/01 01:23:58;;;;;;;6.37;4.37;;;;;;;7.86;100.00;96466.88;5038832;28;20232;-71
2021/06/01 01:26:38;;;;;;;6.63;4.90;;;;;;;7.85;100.00;96470.47;5036333;28;20216;-72
2021/06/01 01:29:14;;;;;;;8.27;4.50;;;;;;;7.85;100.00;96475.72;5039638;28;20208;-71
2021/06/01 01:31:46;;;;;;;8.17;4.90;;;;;;;7.90;100.00;96476.06;5038144;28;20205;-71
2021/06/01 01:34:15;;;;;;;6.50;4.50;;;;;;;7.97;100.00;96475.31;5039571;28;20216;-72
2021/06/01 01:36:43;;;;;;;7.40;4.43;;;;;;;8.03;98.79;96469.44;5038227;28;20212;-72
2021/06/01 01:39:10;;;;;;;8.27;4.20;;;;;;;7.92;99.41;96471.50;5038344;28;20258;-71
2021/06/01 01:41:37;;;;;;;7.27;4.23;;;;;;;7.89;99.50;96471.78;5037889;28;20646;-71
2021/06/01 01:44:09;;;;;;;8.60;4.80;;;;;;;7.97;98.65;96464.81;5037810;28;20718;-71
2021/06/01 01:46:52;;;;;;;6.20;4.03;;;;;;;7.81;97.63;96466.50;5037486;28;20209;-72
2021/06/01 01:49:21;;;;;;;6.63;4.27;;;;;;;7.86;97.61;96482.63;5038308;28;20216;-72
2021/06/01 01:51:51;;;;;;;5.37;3.87;;;;;;;7.79;97.21;96465.84;5037936;28;20216;-72
2021/06/01 01:54:22;;;;;;;10.20;4.23;;;;;;;7.65;97.83;96462.94;5039005;28;20209;-72
2021/06/01 01:56:51;;;;;;;5.73;3.47;;;;;;;7.51;98.53;96472.22;5037969;28;20252;-72
2021/06/01 01:59:18;;;;;;;7.37;4.03;;;;;;;7.46;98.99;96463.16;5037385;28;20202;-72
2021/06/01 02:01:48;;;;;;;7.43;4.20;;;;;;;7.48;99.56;96462.00;5038332;28;20225;-72
2021/06/01 02:04:17;;;;;;;7.63;4.33;;;;;;;7.44;99.28;96465.91;5038128;28;20197;-71
2021/06/01 02:06:45;;;;;;;5.23;3.83;;;;;;;7.43;98.94;96461.69;5036868;28;20220;-72
2021/06/01 02:09:12;;;;;;;6.27;4.03;;;;;;;7.49;98.81;96466.28;5037841;28;20652;-72
2021/06/01 02:11:38;;;;;;;7.10;4.17;;;;;;;7.48;100.00;96464.63;5038525;28;20212;-72
2021/06/01 02:14:05;;;;;;;6.57;4.33;;;;;;;7.49;99.40;96473.34;5034573;28;20608;-71
2021/06/01 02:16:32;;;;;;;6.40;4.20;;;;;;;7.29;99.90;96464.84;5037936;28;20205;-71
2021/06/01 02:18:58;;;;;;;6.00;4.27;;;;;;;7.21;100.00;96458.69;5038918;28;20209;-72
2021/06/01 02:21:34;;;;;;;7.20;4.47;;;;;;;7.20;100.00;96470.16;5038321;28;20302;-71
2021/06/01 02:24:07;;;;;;;6.17;4.20;;;;;;;7.19;100.00;96465.06;5037181;28;20980;-71
2021/06/01 02:26:44;;;;;;;6.93;4.03;;;;;;;7.32;100.00;96464.53;5035975;28;20221;-72
2021/06/01 02:29:24;;;;;;;8.90;4.53;;;;;;;7.38;100.00;96469.16;5038387;28;20208;-72
2021/06/01 02:31:52;;;;;;;5.67;3.90;;;;;;;7.26;100.00;96459.06;5037807;28;20197;-72
2021/06/01 02:34:18;;;;;;;6.70;4.10;;;;;;;7.26;99.85;96461.69;5037512;28;20220;-71
2021/06/01 02:36:45;;;;;;;7.43;4.43;;;;;;;7.28;100.00;96465.00;5037906;28;20197;-71
2021/06/01 02:39:14;;;;;;;7.40;4.30;;;;;;;7.24;100.00;96461.00;5038276;28;20208;-72
2021/06/01 02:41:40;;;;;;;7.17;4.60;;;;;;;7.19;100.00;96465.88;5038754;28;20225;-71
2021/06/01 02:44:06;;;;;;;7.83;4.20;;;;;;;7.09;100.00;96474.78;5038458;28;20257;-71
2021/06/01 02:46:32;;;;;;;6.57;4.30;;;;;;;7.21;100.00;96471.00;5037494;28;20274;-72
2021/06/01 02:48:59;;;;;;;7.80;4.23;;;;;;;7.17;100.00;96477.50;5037200;28;20209;-71
2021/06/01 02:51:25;;;;;;;8.77;4.97;;;;;;;6.98;100.00;96478.47;5037943;28;20201;-71
2021/06/01 02:53:54;;;;;;;6.63;4.47;;;;;;;7.08;100.00;96475.78;5037438;28;20229;-72
2021/06/01 02:56:22;;;;;;;6.77;4.30;;;;;;;7.10;100.00;96465.97;5036817;28;20212;-72
2021/06/01 02:58:50;;;;;;;6.13;3.97;;;;;;;7.16;99.77;96470.63;5038253;28;21018;-72
2021/06/01 03:01:18;;;;;;;6.37;4.20;;;;;;;7.14;100.00;96465.53;5036890;28;20757;-71
2021/06/01 03:03:46;;;;;;;7.23;4.17;;;;;;;7.20;100.00;96466.72;5037202;28;20232;-71
2021/06/01 03:06:12;;;;;;;6.50;4.17;;;;;;;7.18;99.93;96461.63;5037931;28;20224;-71
2021/06/01 03:08:40;;;;;;;6.80;4.10;;;;;;;7.13;99.23;96460.41;5037975;28;20220;-72
2021/06/01 03:11:06;;;;;;;9.43;4.50;;;;;;;7.06;100.00;96457.56;5040478;28;20205;-71
2021/06/01 03:13:33;;;;;;;7.93;4.60;;;;;;;7.00;100.00;96455.56;5041665;28;20315;-72
2021/06/01 03:16:00;;;;;;;6.23;4.43;;;;;;;7.02;100.00;96452.78;5040602;28;20217;-72
2021/06/01 03:18:28;;;;;;;11.03;4.70;;;;;;;7.06;100.00;96451.53;5041495;28;20205;-72
2021/06/01 03:20:54;;;;;;;6.00;3.90;;;;;;;7.09;98.30;96453.81;5040729;28;20237;-72
2021/06/01 03:23:20;;;;;;;5.67;3.87;;;;;;;7.02;95.59;96453.59;5041705;28;20240;-72
2021/06/01 03:25:47;;;;;;;6.70;4.23;;;;;;;6.95;97.23;96451.72;5037218;28;20209;-71
2021/06/01 03:28:14;;;;;;;6.70;4.73;;;;;;;7.00;100.00;96452.13;5042459;28;20558;-71
2021/06/01 03:30:42;;;;;;;7.90;4.50;;;;;;;7.01;100.00;96445.91;5041919;28;20204;-72
2021/06/01 03:33:09;;;;;;;7.13;4.80;;;;;;;6.99;100.00;96447.88;5041630;28;20236;-72
2021/06/01 03:35:35;;;;;;;5.40;3.80;;;;;;;6.85;99.04;96457.06;5040134;28;20665;-71
2021/06/01 03:38:01;;;;;;;8.83;4.30;;;;;;;6.78;99.46;96460.41;5040657;28;20209;-71
2021/06/01 03:40:27;;;;;;;7.27;3.83;;;;;;;6.85;99.26;96454.44;5040806;28;20201;-72
2021/06/01 03:42:53;;;;;;;5.47;3.80;;;;;;;6.74;99.73;96457.25;5040077;28;20737;-71
2021/06/01 03:45:21;;;;;;;6.33;4.27;;;;;;;6.74;99.14;96453.84;5040294;28;20205;-71
2021/06/01 03:47:48;;;;;;;6.37;4.13;;;;;;;6.74;99.11;96459.06;5041594;28;20205;-72
2021/06/01 03:50:15;;;;;;;7.70;5.10;;;;;;;6.84;100.00;96462.44;5040270;28;20205;-71
2021/06/01 03:52:41;;;;;;;6.80;4.80;;;;;;;6.95;100.00;96459.59;5040575;28;21178;-71
2021/06/01 03:55:08;;;;;;;6.43;4.60;;;;;;;6.96;100.00;96459.47;5039830;28;20201;-71
2021/06/01 03:57:34;;;;;;;7.03;4.50;;;;;;;6.95;99.48;96454.34;5041147;28;20224;-71
2021/06/01 04:00:00;;;;;;;9.47;3.90;;;;;;;7.02;99.73;96458.03;5040770;28;20212;-71
2021/06/01 04:02:27;;;;;;;7.87;4.50;;;;;;;7.11;99.72;96457.94;5040361;28;20229;-72
2021/06/01 04:04:54;;;;;;;9.67;4.80;;;;;;;7.12;99.40;96461.41;5040941;28;20209;-71
2021/06/01 04:07:20;;;;;;;7.03;4.63;;;;;;;7.24;99.21;96458.38;5039819;28;20205;-71
2021/06/01 04:09:46;;;;;;;7.90;4.87;;;;;;;7.31;100.00;96467.31;5039875;28;20216;-72
2021/06/01 04:12:12;;;;;;;9.10;5.50;;;;;;;7.43;100.00;96463.44;5040275;28;20217;-71
2021/06/01 04:14:39;;;;;;;9.67;4.83;;;;;;;7.44;100.00;96475.59;5040860;28;20217;-71
2021/06/01 04:17:05;;;;;;;7.97;4.63;;;;;;;7.30;100.00;96471.69;5038890;28;20279;-71
2021/06/01 04:19:32;;;;;;;9.13;4.20;;;;;;;7.15;100.00;96468.97;5040058;28;20205;-71
2021/06/01 04:22:00;;;;;;;6.83;4.13;;;;;;;7.22;100.00;96472.59;5040387;28;20680;-71
2021/06/01 04:24:27;;;;;;;9.07;5.30;;;;;;;7.39;100.00;96468.16;5039739;28;20209;-71
2021/06/01 04:26:53;;;;;;;10.33;5.40;;;;;;;7.60;100.00;96465.22;5036951;28;20759;-72
2021/06/01 04:29:19;;;;;;;10.60;5.83;;;;;;;7.80;100.00;96472.72;5041520;28;20205;-71
2021/06/01 04:31:45;;;;;;;8.47;5.93;;;;;;;7.86;100.00;96464.25;5039819;28;20201;-71
2021/06/01 04:34:11;;;;;;;8.63;6.00;;;;;;;7.98;100.00;96474.34;5039317;28;20202;-72
2021/06/01 04:36:37;;;;;;;8.40;5.73;;;;;;;8.19;100.00;96473.97;5039576;28;20261;-72
2021/06/01 04:39:05;;;;;;;9.43;5.80;;;;;;;8.26;100.00;96477.63;5040586;28;20205;-72
2021/06/01 04:41:31;;;;;;;9.50;6.07;;;;;;;8.30;100.00;96471.06;5039502;28;20228;-71
2021/06/01 04:43:57;;;;;;;10.10;6.30;;;;;;;8.46;100.00;96476.41;5039139;28;20589;-72
2021/06/01 04:46:23;;;;;;;8.90;6.10;;;;;;;8.63;100.00;96468.41;5039220;28;20211;-72
2021/06/01 04:48:50;;;;;;;9.83;6.27;;;;;;;8.72;100.00;96468.28;5038933;28;20214;-71
2021/06/01 04:51:17;;;;;;;10.53;6.33;;;;;;;8.80;100.00;96463.03;5040363;28;20201;-72
2021/06/01 04:53:45;;;;;;;13.13;6.93;;;;;;;8.91;100.00;96462.75;5039313;28;20225;-71
2021/06/01 04:56:12;;;;;;;12.33;6.67;;;;;;;9.06;100.00;96458.47;5039515;28;20197;-71
2021/06/01 04:58:38;;;;;;;13.43;7.03;;;;;;;9.20;100.00;96465.72;5038818;28;21071;-71
2021/06/01 05:01:04;;;;;;;10.90;7.57;;;;;;;9.35;100.00;96461.47;5039145;28;20236;-71
2021/06/01 05:03:30;;;;;;;13.37;7.00;;;;;;;9.49;100.00;96461.63;5039317;28;20228;-71
2021/06/01 05:05:56;;;;;;;14.30;7.47;;;;;;;9.64;100.00;96462.63;5038994;28;20215;-71
2021/06/01 05:08:22;;;;;;;11.53;7.33;;;;;;;9.78;100.00;96465.38;5038725;28;20590;-71
2021/06/01 05:10:48;;;;;;;12.87;7.67;;;;;;;9.92;100.00;96461.28;5038821;28;20262;-71
2021/06/01 05:13:16;;;;;;;11.30;7.53;;;;;;;10.02;100.00;96457.50;5040036;28;20225;-71
2021/06/01 05:15:43;;;;;;;12.30;7.63;;;;;;;10.18;100.00;96462.69;5038659;28;20217;-71
2021/06/01 05:18:09;;;;;;;13.60;6.93;;;;;;;10.32;100.00;96463.81;5039226;28;20200;-71
2021/06/01 05:20:35;;;;;;;9.93;7.30;;;;;;;10.37;100.00;96463.16;5039873;28;20205;-71
2021/06/01 05:23:01;;;;;;;11.17;7.00;;;;;;;10.45;100.00;96459.63;5038288;28;20225;-71
2021/06/01 05:25:27;;;;;;;10.10;7.30;;;;;;;10.53;100.00;96451.72;5035841;28;20213;-71
2021/06/01 05:27:53;;;;;;;10.03;6.60;;;;;;;10.57;100.00;96450.38;5039976;28;20667;-71
2021/06/01 05:30:24;;;;;;;12.30;7.27;;;;;;;10.62;100.00;96450.69;5039474;28;20211;-71
2021/06/01 05:35:43;;;;;;;11.97;6.90;;;;;;;10.81;99.14;96445.00;5038977;28;20259;-71
2021/06/01 05:38:10;;;;;;;10.80;6.70;;;;;;;10.82;98.42;96447.47;5039352;28;20204;-71
2021/06/01 05:40:36;;;;;;;11.90;6.63;;;;;;;10.90;100.00;96446.59;5039336;28;20205;-71
2021/06/01 05:43:02;;;;;;;11.40;7.47;;;;;;;10.99;99.52;96439.25;5038254;28;20228;-71
2021/06/01 05:45:31;;;;;;;15.23;7.40;;;;;;;11.11;100.00;96445.78;5037576;28;20288;-70
2021/06/01 05:47:57;;;;;;;14.17;7.50;;;;;;;11.21;99.90;96448.19;5038908;28;20216;-71
2021/06/01 05:50:23;;;;;;;15.17;7.67;;;;;;;11.29;100.00;96443.69;5038521;28;20978;-71
2021/06/01 05:52:49;;;;;;;12.83;7.23;;;;;;;11.39;98.50;96446.91;5038031;28;20610;-71
2021/06/01 05:55:15;;;;;;;11.07;7.30;;;;;;;11.46;96.92;96455.75;5037517;28;20201;-70
2021/06/01 05:57:41;;;;;;;12.00;7.33;;;;;;;11.56;97.01;96449.25;5038751;28;21172;-71
2021/06/01 06:00:09;;;;;;;10.37;6.67;;;;;;;11.74;98.37;96451.59;5038437;28;20202;-71
2021/06/01 06:02:36;;;;;;;11.50;6.70;;;;;;;11.87;96.01;96457.06;5036842;28;20255;-71
2021/06/01 06:05:04;;;;;;;9.33;6.30;;;;;;;12.01;95.12;96454.44;5037137;28;20215;-70
2021/06/01 06:07:30;;;;;;;8.93;6.05;;;;;;;12.09;92.77;96450.91;5038841;28;20200;-71
2021/06/01 06:09:56;;;;;;;14.10;5.78;;;;;;;12.25;90.10;96449.72;5038650;28;20251;-71
2021/06/01 06:12:22;;;;;;;10.90;5.00;;;;;;;12.41;85.84;96441.63;5037339;28;20246;-71
2021/06/01 06:14:48;;;;;;;11.10;5.35;;;;;;;12.54;84.35;96441.00;5037822;28;20217;-71
2021/06/01 06:17:28;;;;;;;10.85;5.32;;;;;;;12.67;87.26;96447.25;5037944;28;20721;-71
2021/06/01 06:19:58;;;;;;;10.77;4.85;;;;;;;12.77;83.15;96448.59;5039145;28;20236;-71
2021/06/01 06:22:24;;;;;;;8.18;5.50;;;;;;;12.85;85.29;96445.88;5037558;28;20228;-71
2021/06/01 06:24:51;;;;;;;8.50;5.68;;;;;;;12.97;85.61;96439.09;5035500;28;20205;-71
2021/06/01 06:27:17;;;;;;;6.95;4.90;;;;;;;13.07;87.80;96434.34;5038373;28;20279;-71
2021/06/01 06:29:43;;;;;;;7.82;5.18;;;;;;;13.14;83.16;96440.50;5038203;28;20767;-71
2021/06/01 06:32:09;;;;;;;8.73;5.78;;;;;;;13.27;85.38;96445.13;5037395;28;20316;-71
2021/06/01 06:34:35;;;;;;;8.73;6.15;;;;;;;13.33;85.50;96434.59;5037879;28;20217;-71
2021/06/01 06:37:04;;;;;;;9.43;5.43;;;;;;;13.45;86.21;96436.56;5036654;28;20209;-71
2021/06/01 06:39:30;;;;;;;8.73;5.32;;;;;;;13.60;87.44;96439.94;5037830;28;20741;-71
2021/06/01 06:41:57;;;;;;;9.13;4.90;;;;;;;13.72;80.05;96446.38;5036486;28;20251;-71
2021/06/01 06:44:23;;;;;;;6.55;4.78;;;;;;;13.88;76.92;96434.69;5039453;28;20676;-72
2021/06/01 06:47:03;;;;;;;7.70;4.72;;;;;;;13.97;78.33;96438.81;5042291;28;20244;-71
2021/06/01 06:49:29;;;;;;;7.18;4.47;;;;;;;14.19;80.58;96435.94;5042080;28;20213;-71
2021/06/01 06:51:55;;;;;;;10.52;5.07;;;;;;;14.24;79.82;96442.31;5041378;28;20201;-71
2021/06/01 06:54:22;;;;;;;6.07;4.70;;;;;;;14.32;82.48;96443.97;5042285;28;20671;-71
2021/06/01 06:56:48;;;;;;;5.38;4.10;;;;;;;14.45;80.60;96438.78;5040908;28;20220;-72
2021/06/01 06:59:14;;;;;;;9.45;4.80;;;;;;;14.57;80.48;96442.50;5041506;28;20214;-71
2021/06/01 07:01:40;;;;;;;6.68;5.00;;;;;;;14.51;78.44;96443.28;5042286;28;20823;-72
2021/06/01 07:04:06;;;;;;;8.73;4.97;;;;;;;14.77;84.94;96444.22;5040836;28;20382;-72
2021/06/01 07:06:32;;;;;;;5.95;4.05;;;;;;;14.84;76.56;96437.94;5040692;28;20209;-71
2021/06/01 07:08:58;;;;;;;8.65;4.40;;;;;;;15.01;81.67;96430.47;5039861;28;20205;-72
2021/06/01 07:11:25;;;;;;;5.57;4.10;;;;;;;15.09;77.23;96439.03;5041112;28;20201;-72
2021/06/01 07:13:56;;;;;;;7.38;4.13;;;;;;;15.07;72.79;96430.47;5040565;28;20236;-71
2021/06/01 07:16:22;;;;;;;7.05;4.38;;;;;;;15.28;78.54;96430.34;5041217;28;20695;-71
2021/06/01 07:18:48;;;;;;;5.55;4.00;;;;;;;15.46;76.23;96435.91;5041832;28;20216;-71
2021/06/01 07:21:14;;;;;;;5.20;4.13;;;;;;;15.64;74.66;96428.16;5040420;28;20228;-71
2021/06/01 07:23:41;;;;;;;5.75;4.22;;;;;;;15.66;71.69;96426.13;5039980;28;20221;-70
2021/06/01 07:26:07;;;;;;;9.52;4.53;;;;;;;15.65;71.39;96419.97;5037384;28;20206;-71
2021/06/01 07:28:35;;;;;;;6.25;4.25;;;;;;;15.66;72.03;96423.47;5042526;28;20201;-71
2021/06/01 07:31:02;;;;;;;6.00;4.25;;;;;;;15.94;77.89;96415.06;5040012;28;20883;-71
2021/06/01 07:33:28;;;;;;;7.78;3.22;;;;;;;16.29;68.71;96423.66;5040428;28;20291;-71
2021/06/01 07:35:54;;;;;;;4.00;3.08;;;;;;;16.48;63.94;96417.47;5039306;28;20515;-70
2021/06/01 07:38:20;;;;;;;4.38;3.08;;;;;;;16.65;60.30;96420.28;5039442;28;20205;-71
2021/06/01 07:40:46;;;;;;;4.93;3.10;;;;;;;16.68;62.25;96419.06;5040382;28;20324;-71
2021/06/01 07:43:12;;;;;;;10.13;2.97;;;;;;;16.85;56.09;96422.88;5039756;28;20221;-71
2021/06/01 07:45:39;;;;;;;6.47;3.22;;;;;;;16.87;59.77;96423.50;5039319;28;20212;-71
2021/06/01 07:48:06;;;;;;;4.90;2.83;;;;;;;16.98;56.21;96415.66;5040618;28;20213;-71
2021/06/01 07:50:32;;;;;;;5.32;3.40;;;;;;;17.08;56.46;96419.50;5037758;28;20205;-71
2021/06/01 07:52:58;;;;;;;5.38;3.00;;;;;;;17.13;55.20;96413.53;5040723;28;20221;-70
2021/06/01 07:55:24;;;;;;;4.15;2.65;;;;;;;17.27;53.01;96415.13;5039918;28;20300;-71
2021/06/01 07:57:50;;;;;;;4.45;3.10;;;;;;;17.36;54.24;96411.19;5041334;28;20205;-71
2021/06/01 08:00:17;;;;;;;4.90;2.78;;;;;;;17.47;53.12;96416.63;5040605;28;20201;-71
2021/06/01 08:02:45;;;;;;;3.67;2.60;;;;;;;17.58;52.65;96417.78;5040347;28;20233;-71
2021/06/01 08:05:11;;;;;;;5.85;3.10;;;;;;;17.61;49.31;96412.84;5040167;28;20713;-71
2021/06/01 08:07:37;;;;;;;3.97;2.80;;;;;;;17.61;52.02;96407.53;5040509;28;20201;-70
2021/06/01 08:10:05;;;;;;;3.95;2.60;;;;;;;17.69;51.87;96403.78;5040550;28;20205;-71
2021/06/01 08:12:31;;;;;;;5.70;2.47;;;;;;;17.79;49.20;96397.75;5039779;28;20216;-71
2021/06/01 08:14:58;;;;;;;7.82;2.80;;;;;;;17.93;47.59;96391.25;5040244;28;20213;-71
2021/06/01 08:17:24;;;;;;;3.97;2.60;;;;;;;18.06;50.68;96395.66;5039143;28;20209;-71
2021/06/01 08:19:54;;;;;;;4.10;2.33;;;;;;;17.83;50.46;96390.97;5039754;28;20662;-71
2021/06/01 08:22:31;;;;;;;6.80;2.70;;;;;;;17.99;47.65;96405.59;5039451;28;20336;-70
2021/06/01 08:24:57;;;;;;;5.07;2.33;;;;;;;18.11;49.46;96401.97;5040569;28;20235;-71
2021/06/01 08:27:24;;;;;;;5.10;2.67;;;;;;;18.10;50.77;96402.19;5039231;28;20986;-72
2021/06/01 08:29:50;;;;;;;3.88;2.70;;;;;;;18.16;51.24;96402.13;5039523;28;20205;-71
2021/06/01 08:32:16;;;;;;;6.57;3.03;;;;;;;18.21;50.22;96405.00;5040189;28;20232;-72
2021/06/01 08:34:42;;;;;;;4.20;2.58;;;;;;;18.39;48.04;96397.84;5039171;28;20209;-72
2021/06/01 08:37:10;;;;;;;4.57;2.50;;;;;;;18.59;46.35;96398.44;5040076;28;20220;-73
2021/06/01 08:39:36;;;;;;;7.05;2.40;;;;;;;18.52;47.41;96400.38;5039336;28;20201;-73
2021/06/01 08:42:03;;;;;;;4.75;3.03;;;;;;;18.51;46.59;96396.06;5039605;28;20286;-72
2021/06/01 08:44:29;;;;;;;5.22;2.72;;;;;;;18.44;48.66;96383.81;5039660;28;20205;-72
2021/06/01 08:46:56;;;;;;;5.53;2.75;;;;;;;18.62;47.25;96387.34;5039010;28;20660;-72
2021/06/01 08:49:22;;;;;;;12.70;3.13;;;;;;;18.56;49.29;96382.88;5036821;28;20292;-72
2021/06/01 08:51:49;;;;;;;3.95;2.60;;;;;;;18.50;47.64;96381.09;5039362;28;20209;-72
2021/06/01 08:54:17;;;;;;;3.45;2.35;;;;;;;18.58;47.81;96380.81;5040480;28;20603;-72
2021/06/01 08:56:44;;;;;;;7.00;3.20;;;;;;;18.75;48.32;96389.84;5039463;28;20213;-72
2021/06/01 08:59:11;;;;;;;6.20;2.70;;;;;;;19.06;50.12;96381.69;5039608;28;20292;-72
2021/06/01 09:01:37;;;;;;;8.25;2.63;;;;;;;19.21;46.04;96390.13;5039012;28;20225;-72
2021/06/01 09:04:08;;;;;;;5.75;2.90;;;;;;;19.26;46.20;96388.38;5039907;28;20232;-72
2021/06/01 09:06:37;;;;;;;4.38;2.83;;;;;;;19.07;46.44;96380.66;5037826;28;21111;-72
2021/06/01 09:09:21;;;;;;;5.32;2.53;;;;;;;18.99;46.97;96379.06;5039429;28;20201;-72
2021/06/01 09:11:58;;;;;;;4.63;2.30;;;;;;;19.09;48.80;96373.19;5039221;28;20215;-72
2021/06/01 09:22:49;;;;;;;7.93;2.78;;;;;;;19.56;45.76;96375.00;5039850;28;20240;-72
2021/06/01 09:25:19;;;;;;;4.47;2.92;;;;;;;19.60;46.44;96367.09;5038675;28;20208;-72
2021/06/01 09:27:48;;;;;;;4.32;2.80;;;;;;;19.97;42.91;96373.94;5038657;28;20247;-73
2021/06/01 09:30:36;;;;;;;3.90;2.65;;;;;;;20.12;42.53;96366.25;5038751;28;20205;-73
2021/06/01 09:33:05;;;;;;;5.28;2.72;;;;;;;20.42;44.89;96350.91;5037759;28;20228;-73
2021/06/01 09:35:42;;;;;;;5.25;2.63;;;;;;;20.20;43.71;96363.25;5038432;28;20213;-73
2021/06/01 09:38:08;;;;;;;4.10;3.08;;;;;;;20.15;48.31;96349.75;5039655;28;20216;-73
2021/06/01 09:40:34;;;;;;;7.45;3.13;;;;;;;20.39;48.49;96351.34;5038950;28;20210;-73
2021/06/01 09:43:06;;;;;;;3.72;2.67;;;;;;;20.58;45.92;96361.72;5038781;28;20229;-72
2021/06/01 09:45:32;;;;;;;3.20;2.80;;;;;;;20.86;43.23;96354.56;5038100;28;20225;-73
2021/06/01 09:48:00;;;;;;;3.90;2.78;;;;;;;20.79;40.41;96339.69;5038467;28;20307;-72
2021/06/01 09:50:32;;;;;;;6.25;2.85;;;;;;;20.92;44.09;96348.22;5035782;28;20205;-73
2021/06/01 09:53:01;;;;;;;4.80;2.53;;;;;;;20.90;42.67;96342.31;5039889;28;20226;-73
2021/06/01 09:55:32;;;;;;;3.97;2.80;;;;;;;20.76;46.21;96336.66;5037529;28;20205;-73
2021/06/01 09:58:00;;;;;;;4.70;3.00;;;;;;;20.77;42.04;96340.97;5037740;28;20236;-72
2021/06/01 10:00:28;;;;;;;4.25;2.80;;;;;;;20.72;44.85;96335.47;5039593;28;20240;-72
2021/06/01 10:03:02;;;;;;;3.85;3.05;;;;;;;20.76;43.86;96321.41;5038671;28;20276;-73
2021/06/01 10:05:29;;;;;;;6.95;3.20;;;;;;;20.77;40.95;96323.00;5037886;28;20347;-72
2021/06/01 10:07:57;;;;;;;4.55;2.70;;;;;;;20.90;46.42;96317.38;5038598;28;20209;-74
2021/06/01 10:10:25;;;;;;;4.78;2.58;;;;;;;20.94;43.13;96330.06;5038571;28;20208;-73
2021/06/01 10:12:54;;;;;;;5.07;2.95;;;;;;;20.96;40.02;96319.94;5037542;28;20221;-73
2021/06/01 10:15:22;;;;;;;6.57;2.72;;;;;;;21.04;43.36;96322.22;5038008;28;20216;-73
2021/06/01 10:17:50;;;;;;;7.75;2.40;;;;;;;21.21;46.45;96325.75;5037655;28;20201;-73
2021/06/01 10:20:19;;;;;;;3.88;2.60;;;;;;;21.09;45.80;96316.97;5038349;28;20242;-73
2021/06/01 10:22:45;;;;;;;4.95;2.70;;;;;;;21.36;41.17;96328.72;5039129;28;20360;-72
2021/06/01 10:25:13;;;;;;;4.75;2.70;;;;;;;21.54;44.13;96325.84;5037069;28;20229;-73
2021/06/01 10:27:39;;;;;;;4.50;2.58;;;;;;;21.52;38.28;96326.09;5038049;28;20201;-72
2021/06/01 10:30:08;;;;;;;5.25;2.80;;;;;;;21.27;41.39;96326.66;5037604;28;20702;-72
2021/06/01 10:32:37;;;;;;;6.85;2.90;;;;;;;21.36;43.60;96323.38;5037882;28;20220;-73
2021/06/01 10:35:09;;;;;;;4.15;2.55;;;;;;;21.55;41.87;96322.94;5037505;28;20246;-72
2021/06/01 10:43:53;;;;;;;8.35;2.90;;;;;;;21.93;41.34;96312.28;5037775;28;20287;-72
2021/06/01 10:52:11;;;;;;;5.97;2.50;;;;;;;22.12;39.23;96308.25;5013214;28;20717;-73
2021/06/01 10:54:57;;;;;;;4.65;2.55;;;;;;;22.20;40.33;96295.25;5039226;28;20677;-73
2021/06/01 10:57:24;;;;;;;4.50;2.53;;;;;;;22.16;40.23;96296.81;5036635;28;20710;-72
2021/06/01 11:01:49;;;;;;;4.13;2.50;;;;;;;22.29;42.69;96301.84;5037326;28;20607;-73
2021/06/01 11:03:02;;;;;;;3.55;2.45;;;;;;;22.55;41.37;96287.69;5036792;28;20323;-72
2021/06/01 11:05:28;;;;;;;6.45;2.50;;;;;;;22.57;40.44;96296.31;5036201;28;20205;-72
2021/06/01 11:07:58;;;;;;;5.35;2.28;;;;;;;22.76;40.04;96290.38;5037814;28;20619;-72
2021/06/01 11:10:38;;;;;;;9.10;2.95;;;;;;;22.80;41.03;96293.38;5038322;28;20651;-72
2021/06/01 11:13:04;;;;;;;3.58;2.13;;;;;;;22.60;40.49;96284.25;5037090;28;20224;-71
2021/06/01 11:15:38;;;;;;;3.53;2.42;;;;;;;22.58;39.38;96273.78;5037038;28;20224;-72
2021/06/01 11:18:17;;;;;;;5.38;2.30;;;;;;;22.83;38.89;96279.44;5038283;28;20672;-72
2021/06/01 11:21:18;;;;;;;4.55;2.30;;;;;;;22.77;42.24;96275.06;5038031;28;20661;-72
2021/06/01 11:35:38;;;;;;;3.60;2.67;;;;;;;22.72;42.03;96259.69;5029283;28;20204;-72
2021/06/01 11:38:09;;;;;;;3.38;2.35;;;;;;;22.67;36.82;96272.28;5040882;28;20292;-72
2021/06/01 11:40:51;;;;;;;3.13;2.38;;;;;;;22.54;39.35;96267.25;5041166;28;20670;-72
2021/06/01 11:43:19;;;;;;;4.90;2.47;;;;;;;22.77;38.71;96258.94;5040526;28;20229;-72
2021/06/01 11:45:51;;;;;;;4.60;2.50;;;;;;;22.62;39.99;96256.09;5039004;28;20272;-72
2021/06/01 11:51:12;;;;;;;3.90;2.70;;;;;;;22.65;38.88;96255.56;5016296;28;21128;-72
2021/06/01 11:53:50;;;;;;;2.95;2.30;;;;;;;22.86;38.14;96254.72;5040958;28;20224;-72
2021/06/01 11:56:39;;;;;;;3.80;2.63;;;;;;;22.92;38.45;96246.47;5039806;28;20562;-72
2021/06/01 12:04:49;;;;;;;8.75;2.50;;;;;;;23.44;39.05;96240.28;5040131;28;20376;-72
2021/06/01 12:12:54;;;;;;;4.63;2.28;;;;;;;23.56;38.40;96226.66;5040313;28;20284;-72
2021/06/01 12:18:14;;;;;;;3.90;2.70;;;;;;;23.06;34.90;96226.22;5039671;28;20263;-72
2021/06/01 12:20:40;;;;;;;3.22;2.50;;;;;;;23.47;33.83;96233.59;5040730;28;20205;-73
2021/06/01 12:23:26;;;;;;;5.28;2.55;;;;;;;23.53;40.22;96221.81;5038357;28;20745;-73
2021/06/01 12:26:02;;;;;;;2.58;2.13;;;;;;;23.77;39.21;96215.03;5038242;28;20227;-72
2021/06/01 12:31:23;;;;;;;3.45;2.22;;;;;;;24.23;32.90;96217.72;5038622;28;20209;-73
2021/06/01 12:34:00;;;;;;;4.70;2.30;;;;;;;23.60;37.04;96212.44;5039536;28;20222;-73